Time;durP1;ratioP1;P1;durP2;ratioP2;P2;SDS_P1;SDS_P2;PMS_P1;PMS_P2;Temp;Humidity;BMP_temperature;BMP_pressure;BME280_temperature;BME280_humidity;BME280_pressure;Samples;Min_cycle;Max_cycle;Signal;HPM_P1;HPM_P2
2023/04/15 00:02:03;;;;;;;;;;;;;;;;;;4940499;28;20141;-92
2023/04/15 00:04:30;;;;;;;;;;;;;;;;;;4956552;28;19922;-93
2023/04/15 00:06:56;;;;;;;;;;;;;;;;;;4940536;28;19972;-92
2023/04/15 00:09:22;;;;;;;;;;;;;;;;;;4940215;28;19923;-92
2023/04/15 00:11:49;;;;;;;;;;;;;;;;;;4940287;28;19922;-92
2023/04/15 00:14:15;;;;;;;;;;;;;;;;;;4940407;28;19969;-92
2023/04/15 00:16:41;;;;;;;;;;;;;;;;;;4956214;28;19976;-93
2023/04/15 00:19:07;;;;;;;;;;;;;;;;;;4956201;28;20292;-92
2023/04/15 00:21:33;;;;;;;;;;;;;;;;;;4956510;28;19926;-92
2023/04/15 00:23:59;;;;;;;;;;;;;;;;;;4940201;28;20005;-93
2023/04/15 00:26:24;;;;;;;;;;;;;;;;;;4940417;28;20482;-92
2023/04/15 00:28:50;;;;;;;;;;;;;;;;;;4940662;28;19922;-93
2023/04/15 00:31:16;;;;;;;;;;;;;;;;;;4940401;28;19923;-93
2023/04/15 00:33:43;;;;;;;;;;;;;;;;;;4940478;28;19922;-93
2023/04/15 00:36:10;;;;;;;;;;;;;;;;;;4940615;28;19926;-93
2023/04/15 00:38:35;;;;;;;;;;;;;;;;;;4940402;28;19922;-94
2023/04/15 00:41:02;;;;;;;;;;;;;;;;;;4939884;28;20068;-91
2023/04/15 00:43:28;;;;;;;;;;;;;;;;;;4956055;28;20305;-91
2023/04/15 00:45:54;;;;;;;;;;;;;;;;;;4939701;28;19922;-92
2023/04/15 00:48:21;;;;;;;;;;;;;;;;;;4940192;28;20001;-92
2023/04/15 00:50:47;;;;;;;;;;;;;;;;;;4940294;28;20298;-92
2023/04/15 00:53:12;;;;;;;;;;;;;;;;;;4940238;28;19945;-92
2023/04/15 00:55:38;;;;;;;;;;;;;;;;;;4955929;28;19955;-92
2023/04/15 00:58:04;;;;;;;;;;;;;;;;;;4940124;28;19922;-92
2023/04/15 01:00:30;;;;;;;;;;;;;;;;;;4943243;28;20354;-92
2023/04/15 01:02:56;;;;;;;;;;;;;;;;;;4943319;28;19922;-92
2023/04/15 01:05:22;;;;;;;;;;;;;;;;;;4959530;28;19929;-92
2023/04/15 01:07:48;;;;;;;;;;;;;;;;;;4943424;28;19934;-93
2023/04/15 01:10:14;;;;;;;;;;;;;;;;;;4943654;28;19929;-92
2023/04/15 01:12:40;;;;;;;;;;;;;;;;;;4943398;28;19922;-92
2023/04/15 01:15:06;;;;;;;;;;;;;;;;;;4943309;28;19976;-92
2023/04/15 01:20:11;;;;;;;;;;;;;;;;;;5060254;23;20020;-93
2023/04/15 01:22:38;;;;;;;;;;;;;;;;;;4982132;28;20284;-93
2023/04/15 01:25:05;;;;;;;;;;;;;;;;;;4981957;28;19991;-92
2023/04/15 01:27:31;;;;;;;;;;;;;;;;;;4981512;28;19928;-92
2023/04/15 01:29:57;;;;;;;;;;;;;;;;;;4981908;28;19922;-93
2023/04/15 01:32:23;;;;;;;;;;;;;;;;;;4981706;28;19921;-92
2023/04/15 01:34:49;;;;;;;;;;;;;;;;;;4981691;28;20304;-93
2023/04/15 01:37:15;;;;;;;;;;;;;;;;;;4981431;28;19926;-92
2023/04/15 01:39:41;;;;;;;;;;;;;;;;;;4981525;28;19944;-93
2023/04/15 01:42:07;;;;;;;;;;;;;;;;;;4981487;28;19972;-94
2023/04/15 01:44:36;;;;;;;;;;;;;;;;;;4982056;28;20018;-93
2023/04/15 01:47:02;;;;;;;;;;;;;;;;;;4981757;28;20059;-93
2023/04/15 01:49:28;;;;;;;;;;;;;;;;;;4981209;28;20024;-93
2023/04/15 01:51:54;;;;;;;;;;;;;;;;;;4981396;28;20293;-92
2023/04/15 01:54:22;;;;;;;;;;;;;;;;;;4982093;28;20032;-94
2023/04/15 01:56:48;;;;;;;;;;;;;;;;;;4981569;28;19973;-95
2023/04/15 01:59:16;;;;;;;;;;;;;;;;;;4997806;28;19922;-93
2023/04/15 02:01:42;;;;;;;;;;;;;;;;;;4981162;28;19922;-94
2023/04/15 02:04:15;;;;;;;;;;;;;;;;;;4981855;28;19925;-93
2023/04/15 02:06:41;;;;;;;;;;;;;;;;;;4981549;28;19968;-93
2023/04/15 02:09:08;;;;;;;;;;;;;;;;;;4981525;28;20357;-92
2023/04/15 02:11:34;;;;;;;;;;;;;;;;;;4996913;28;19922;-92
2023/04/15 02:14:00;;;;;;;;;;;;;;;;;;4980858;28;20391;-92
2023/04/15 02:16:26;;;;;;;;;;;;;;;;;;4980436;28;19925;-92
2023/04/15 02:18:52;;;;;;;;;;;;;;;;;;4980551;28;19933;-93
2023/04/15 02:21:18;;;;;;;;;;;;;;;;;;4981130;28;19921;-91
2023/04/15 02:23:45;;;;;;;;;;;;;;;;;;4980724;28;19926;-93
2023/04/15 02:26:11;;;;;;;;;;;;;;;;;;4980664;28;19977;-93
2023/04/15 02:28:37;;;;;;;;;;;;;;;;;;4980446;28;20036;-93
2023/04/15 02:31:04;;;;;;;;;;;;;;;;;;4980388;28;19929;-94
2023/04/15 02:33:31;;;;;;;;;;;;;;;;;;4996900;28;20008;-92
2023/04/15 02:35:58;;;;;;;;;;;;;;;;;;4980145;28;19925;-91
2023/04/15 02:38:24;;;;;;;;;;;;;;;;;;4980153;28;19921;-91
2023/04/15 02:40:50;;;;;;;;;;;;;;;;;;4979888;28;19932;-91
2023/04/15 02:43:19;;;;;;;;;;;;;;;;;;4980212;28;19936;-91
2023/04/15 02:45:45;;;;;;;;;;;;;;;;;;4979820;28;19929;-91
2023/04/15 02:48:10;;;;;;;;;;;;;;;;;;4996333;28;19921;-91
2023/04/15 02:50:38;;;;;;;;;;;;;;;;;;4979744;28;20012;-92
2023/04/15 02:53:04;;;;;;;;;;;;;;;;;;4979994;28;19921;-92
2023/04/15 02:55:30;;;;;;;;;;;;;;;;;;4996141;28;19922;-92
2023/04/15 02:57:59;;;;;;;;;;;;;;;;;;4996181;28;19968;-92
2023/04/15 03:00:25;;;;;;;;;;;;;;;;;;4980402;28;20289;-93
2023/04/15 03:02:55;;;;;;;;;;;;;;;;;;4996441;28;19929;-92
2023/04/15 03:05:22;;;;;;;;;;;;;;;;;;4979250;28;20385;-92
2023/04/15 03:07:48;;;;;;;;;;;;;;;;;;4980031;28;19984;-92
2023/04/15 03:10:14;;;;;;;;;;;;;;;;;;4995918;28;19926;-92
2023/04/15 03:12:40;;;;;;;;;;;;;;;;;;4979922;28;20233;-92
2023/04/15 03:15:06;;;;;;;;;;;;;;;;;;4980116;28;19922;-92
2023/04/15 03:17:32;;;;;;;;;;;;;;;;;;4979398;28;19925;-92
2023/04/15 03:19:58;;;;;;;;;;;;;;;;;;4979447;28;19926;-92
2023/04/15 03:22:25;;;;;;;;;;;;;;;;;;4979009;28;19971;-91
2023/04/15 03:24:51;;;;;;;;;;;;;;;;;;4979150;28;19928;-91
2023/04/15 03:27:17;;;;;;;;;;;;;;;;;;4978910;28;19921;-91
2023/04/15 03:29:43;;;;;;;;;;;;;;;;;;4979128;28;20298;-91
2023/04/15 03:32:09;;;;;;;;;;;;;;;;;;4979091;28;19921;-91
2023/04/15 03:34:35;;;;;;;;;;;;;;;;;;4979048;28;19921;-91
2023/04/15 03:37:01;;;;;;;;;;;;;;;;;;4994959;28;19975;-91
2023/04/15 03:39:27;;;;;;;;;;;;;;;;;;4979087;28;20293;-91
2023/04/15 03:41:53;;;;;;;;;;;;;;;;;;4995153;28;19940;-92
2023/04/15 03:44:19;;;;;;;;;;;;;;;;;;4995030;28;19973;-92
2023/04/15 03:46:45;;;;;;;;;;;;;;;;;;4979120;28;19944;-91
2023/04/15 03:49:10;;;;;;;;;;;;;;;;;;4978958;28;19928;-91
2023/04/15 03:51:36;;;;;;;;;;;;;;;;;;4979045;28;20388;-91
2023/04/15 03:54:02;;;;;;;;;;;;;;;;;;4978664;28;19921;-91
2023/04/15 03:56:28;;;;;;;;;;;;;;;;;;4978864;28;19940;-91
2023/04/15 03:58:54;;;;;;;;;;;;;;;;;;4978846;28;19921;-91
2023/04/15 04:01:20;;;;;;;;;;;;;;;;;;4978827;28;19932;-92
2023/04/15 04:03:46;;;;;;;;;;;;;;;;;;4978920;28;20017;-91
2023/04/15 04:06:12;;;;;;;;;;;;;;;;;;4994740;28;20024;-92
2023/04/15 04:08:38;;;;;;;;;;;;;;;;;;4978569;28;19944;-91
2023/04/15 04:11:04;;;;;;;;;;;;;;;;;;4978682;28;19922;-91
2023/04/15 04:13:30;;;;;;;;;;;;;;;;;;4995015;28;19931;-91
2023/04/15 04:15:56;;;;;;;;;;;;;;;;;;4978422;28;19925;-91
2023/04/15 04:18:22;;;;;;;;;;;;;;;;;;4978245;28;19926;-91
2023/04/15 04:20:48;;;;;;;;;;;;;;;;;;4994527;28;19921;-91
2023/04/15 04:23:14;;;;;;;;;;;;;;;;;;4978360;28;20368;-90
2023/04/15 04:25:40;;;;;;;;;;;;;;;;;;4994292;28;19932;-90
2023/04/15 04:28:06;;;;;;;;;;;;;;;;;;4978485;28;19922;-90
2023/04/15 04:30:32;;;;;;;;;;;;;;;;;;4995457;28;19928;-90
2023/04/15 04:32:58;;;;;;;;;;;;;;;;;;4996122;28;19921;-90
2023/04/15 04:35:23;;;;;;;;;;;;;;;;;;4982003;28;19921;-90
2023/04/15 04:37:49;;;;;;;;;;;;;;;;;;4982058;28;19929;-90
2023/04/15 04:40:15;;;;;;;;;;;;;;;;;;4998339;28;20249;-90
2023/04/15 04:42:41;;;;;;;;;;;;;;;;;;4998331;28;19921;-90
2023/04/15 04:45:07;;;;;;;;;;;;;;;;;;4998440;28;19929;-90
2023/04/15 04:47:33;;;;;;;;;;;;;;;;;;4982203;28;20269;-90
2023/04/15 04:49:59;;;;;;;;;;;;;;;;;;4998769;28;19932;-90
2023/04/15 04:52:25;;;;;;;;;;;;;;;;;;4998448;28;19921;-90
2023/04/15 04:54:51;;;;;;;;;;;;;;;;;;4982338;28;20027;-90
2023/04/15 04:57:17;;;;;;;;;;;;;;;;;;4981840;28;20365;-90
2023/04/15 04:59:43;;;;;;;;;;;;;;;;;;4997992;28;19951;-90
2023/04/15 05:02:08;;;;;;;;;;;;;;;;;;4981913;28;19921;-91
2023/04/15 05:04:35;;;;;;;;;;;;;;;;;;4982017;28;19971;-92
2023/04/15 05:07:01;;;;;;;;;;;;;;;;;;4981867;28;19937;-91
2023/04/15 05:09:28;;;;;;;;;;;;;;;;;;4998383;28;19927;-91
2023/04/15 05:11:55;;;;;;;;;;;;;;;;;;4981644;28;19921;-91
2023/04/15 05:14:21;;;;;;;;;;;;;;;;;;4981865;28;19928;-91
2023/04/15 05:16:47;;;;;;;;;;;;;;;;;;4981472;28;19925;-91
2023/04/15 05:19:13;;;;;;;;;;;;;;;;;;4994261;28;19933;-92
2023/04/15 05:21:39;;;;;;;;;;;;;;;;;;4978293;28;19933;-90
2023/04/15 05:24:05;;;;;;;;;;;;;;;;;;4978204;28;20008;-90
2023/04/15 05:26:31;;;;;;;;;;;;;;;;;;4994458;28;19921;-90
2023/04/15 05:28:57;;;;;;;;;;;;;;;;;;4977890;28;19984;-90
2023/04/15 05:31:23;;;;;;;;;;;;;;;;;;4978220;28;19926;-90
2023/04/15 05:33:49;;;;;;;;;;;;;;;;;;4994508;28;20004;-90
2023/04/15 05:36:15;;;;;;;;;;;;;;;;;;4977972;28;19929;-90
2023/04/15 05:38:41;;;;;;;;;;;;;;;;;;4994006;28;19925;-90
2023/04/15 05:41:07;;;;;;;;;;;;;;;;;;4994216;28;19922;-91
2023/04/15 05:43:33;;;;;;;;;;;;;;;;;;4978045;28;19921;-90
2023/04/15 05:45:58;;;;;;;;;;;;;;;;;;4976764;28;19921;-90
2023/04/15 05:48:24;;;;;;;;;;;;;;;;;;4977793;28;20285;-90
2023/04/15 05:50:50;;;;;;;;;;;;;;;;;;4977717;28;20349;-90
2023/04/15 05:53:16;;;;;;;;;;;;;;;;;;4993674;28;19922;-91
2023/04/15 05:55:42;;;;;;;;;;;;;;;;;;4993839;28;19929;-91
2023/04/15 05:58:08;;;;;;;;;;;;;;;;;;4977242;28;20253;-91
2023/04/15 06:00:35;;;;;;;;;;;;;;;;;;4977298;28;19922;-91
2023/04/15 06:03:01;;;;;;;;;;;;;;;;;;4977439;28;20369;-91
2023/04/15 06:05:27;;;;;;;;;;;;;;;;;;4977195;28;19977;-90
2023/04/15 06:07:52;;;;;;;;;;;;;;;;;;4993328;28;19929;-90
2023/04/15 06:10:18;;;;;;;;;;;;;;;;;;4977517;28;19922;-91
2023/04/15 06:12:44;;;;;;;;;;;;;;;;;;4993488;28;19922;-90
2023/04/15 06:15:10;;;;;;;;;;;;;;;;;;4993392;28;19941;-89
2023/04/15 06:17:36;;;;;;;;;;;;;;;;;;4993282;28;20278;-89
2023/04/15 06:20:02;;;;;;;;;;;;;;;;;;4992850;28;19926;-90
2023/04/15 06:22:28;;;;;;;;;;;;;;;;;;4976895;28;20329;-90
2023/04/15 06:24:54;;;;;;;;;;;;;;;;;;4992929;28;20012;-89
2023/04/15 06:27:21;;;;;;;;;;;;;;;;;;4976862;28;19930;-90
2023/04/15 06:29:47;;;;;;;;;;;;;;;;;;4977224;28;19929;-91
2023/04/15 06:32:13;;;;;;;;;;;;;;;;;;4993120;28;19922;-90
2023/04/15 06:34:39;;;;;;;;;;;;;;;;;;4993129;28;19926;-91
2023/04/15 06:37:05;;;;;;;;;;;;;;;;;;4976790;28;20395;-90
2023/04/15 06:39:31;;;;;;;;;;;;;;;;;;4976831;28;20261;-89
2023/04/15 06:41:57;;;;;;;;;;;;;;;;;;4992833;28;19961;-90
2023/04/15 06:44:24;;;;;;;;;;;;;;;;;;4977016;28;19929;-92
2023/04/15 06:46:50;;;;;;;;;;;;;;;;;;4977079;28;19922;-91
2023/04/15 06:49:16;;;;;;;;;;;;;;;;;;4976636;28;19930;-91
2023/04/15 06:51:42;;;;;;;;;;;;;;;;;;4976984;28;19941;-92
2023/04/15 06:54:08;;;;;;;;;;;;;;;;;;4976703;28;20396;-91
2023/04/15 06:56:34;;;;;;;;;;;;;;;;;;4975555;28;19926;-91
2023/04/15 06:59:00;;;;;;;;;;;;;;;;;;4976684;28;19925;-91
2023/04/15 07:01:26;;;;;;;;;;;;;;;;;;4976547;28;20243;-92
2023/04/15 07:03:55;;;;;;;;;;;;;;;;;;4976887;28;19922;-91
2023/04/15 07:06:23;;;;;;;;;;;;;;;;;;4976268;28;20021;-92
2023/04/15 07:08:50;;;;;;;;;;;;;;;;;;4976483;28;19936;-91
2023/04/15 07:11:17;;;;;;;;;;;;;;;;;;4976749;28;20378;-91
2023/04/15 07:13:43;;;;;;;;;;;;;;;;;;4976802;28;20008;-91
2023/04/15 07:16:09;;;;;;;;;;;;;;;;;;4976486;28;19983;-91
2023/04/15 07:18:35;;;;;;;;;;;;;;;;;;4976107;28;19930;-92
2023/04/15 07:21:03;;;;;;;;;;;;;;;;;;4979500;28;19921;-96
2023/04/15 07:23:32;;;;;;;;;;;;;;;;;;4995340;28;19941;-96
2023/04/15 07:25:58;;;;;;;;;;;;;;;;;;4977367;28;19921;-96
2023/04/15 07:28:24;;;;;;;;;;;;;;;;;;4985067;28;20294;-96
2023/04/15 07:31:36;;;;;;;;;;;;;;;;;;4996727;28;19921;-96
2023/04/15 07:34:23;;;;;;;;;;;;;;;;;;4992478;28;19921;-96
2023/04/15 07:56:37;;;;;;;;;;;;;;;;;;5686412;23;19929;-94
2023/04/15 07:59:26;;;;;;;;;;;;;;;;;;;;;
2023/04/15 08:17:45;;;;;;;;;;;;;;;;;;5499460;22;19976;-92
2023/04/15 08:38:22;;;;;;;;;;;;;;;;;;4972971;28;19926;-92
2023/04/15 08:40:54;;;;;;;;;;;;;;;;;;4964975;28;19918;-94
2023/04/15 08:43:25;;;;;;;;;;;;;;;;;;4974363;28;20064;-92
2023/04/15 08:45:54;;;;;;;;;;;;;;;;;;4961044;28;19922;-96
2023/04/15 08:51:48;;;;;;;;;;;;;;;;;;;;;
2023/04/15 08:54:43;;;;;;;;;;;;;;;;;;4866549;29;19965;-96
2023/04/15 09:00:28;;;;;;;;;;;;;;;;;;4930633;29;19998;-95
2023/04/15 09:08:11;;;;;;;;;;;;;;;;;;5348302;23;19979;-94
2023/04/15 09:10:40;;;;;;;;;;;;;;;;;;5011255;28;20399;-92
2023/04/15 09:13:06;;;;;;;;;;;;;;;;;;5010860;28;20012;-92
2023/04/15 09:15:32;;;;;;;;;;;;;;;;;;5011691;28;19968;-93
2023/04/15 09:18:01;;;;;;;;;;;;;;;;;;5011658;28;19997;-94
2023/04/15 09:20:27;;;;;;;;;;;;;;;;;;4996872;28;19933;-94
2023/04/15 09:22:55;;;;;;;;;;;;;;;;;;4998993;28;19922;-94
2023/04/15 09:25:21;;;;;;;;;;;;;;;;;;4998489;28;19921;-94
2023/04/15 09:27:48;;;;;;;;;;;;;;;;;;4998161;28;19928;-95
2023/04/15 09:30:18;;;;;;;;;;;;;;;;;;4988993;28;19932;-96
2023/04/15 09:32:45;;;;;;;;;;;;;;;;;;4995923;28;20389;-94
2023/04/15 09:35:14;;;;;;;;;;;;;;;;;;4995318;28;19921;-94
2023/04/15 09:37:40;;;;;;;;;;;;;;;;;;4981063;28;20400;-96
2023/04/15 09:40:08;;;;;;;;;;;;;;;;;;4983300;28;19985;-96
2023/04/15 09:42:46;;;;;;;;;;;;;;;;;;4998470;28;20431;-95
2023/04/15 09:45:18;;;;;;;;;;;;;;;;;;5002509;28;19921;-97
2023/04/15 09:47:44;;;;;;;;;;;;;;;;;;4982996;28;19925;-95
2023/04/15 09:50:10;;;;;;;;;;;;;;;;;;4979757;28;19926;-96
2023/04/15 09:52:36;;;;;;;;;;;;;;;;;;4978832;28;19980;-96
2023/04/15 09:55:03;;;;;;;;;;;;;;;;;;4980314;28;19928;-95
2023/04/15 09:57:35;;;;;;;;;;;;;;;;;;4997061;28;20400;-94
2023/04/15 10:00:01;;;;;;;;;;;;;;;;;;4978703;28;19921;-95
2023/04/15 10:02:30;;;;;;;;;;;;;;;;;;4979353;28;19926;-92
2023/04/15 10:04:56;;;;;;;;;;;;;;;;;;4978348;28;19928;-93
2023/04/15 10:07:22;;;;;;;;;;;;;;;;;;4978023;28;19957;-95
2023/04/15 10:09:48;;;;;;;;;;;;;;;;;;4978995;28;19926;-95
2023/04/15 10:12:14;;;;;;;;;;;;;;;;;;4978516;28;20008;-95
2023/04/15 10:14:41;;;;;;;;;;;;;;;;;;4979091;28;19926;-96
2023/04/15 10:17:07;;;;;;;;;;;;;;;;;;4978278;28;19995;-95
2023/04/15 10:19:37;;;;;;;;;;;;;;;;;;4994472;28;19922;-94
2023/04/15 10:22:03;;;;;;;;;;;;;;;;;;4979362;28;20341;-94
2023/04/15 10:24:29;;;;;;;;;;;;;;;;;;4981776;28;19922;-93
2023/04/15 10:26:56;;;;;;;;;;;;;;;;;;4980393;28;19972;-96
2023/04/15 10:29:22;;;;;;;;;;;;;;;;;;4977710;28;19922;-93
2023/04/15 10:31:48;;;;;;;;;;;;;;;;;;4977788;28;19965;-94
2023/04/15 10:34:14;;;;;;;;;;;;;;;;;;4990564;28;19929;-94
2023/04/15 10:36:40;;;;;;;;;;;;;;;;;;4978889;28;19930;-93
2023/04/15 10:39:06;;;;;;;;;;;;;;;;;;4978613;28;19922;-96
2023/04/15 10:41:34;;;;;;;;;;;;;;;;;;4993793;28;19929;-94
2023/04/15 10:44:15;;;;;;;;;;;;;;;;;;4993511;28;19933;-96
2023/04/15 10:46:42;;;;;;;;;;;;;;;;;;4994159;28;19922;-95
2023/04/15 10:49:08;;;;;;;;;;;;;;;;;;4978314;28;19933;-95
2023/04/15 10:51:34;;;;;;;;;;;;;;;;;;4977921;28;20281;-94
2023/04/15 10:54:00;;;;;;;;;;;;;;;;;;4979343;28;20253;-95
2023/04/15 10:56:26;;;;;;;;;;;;;;;;;;4976978;28;19926;-92
2023/04/15 10:58:52;;;;;;;;;;;;;;;;;;4977244;28;20377;-93
2023/04/15 11:01:18;;;;;;;;;;;;;;;;;;4978629;28;19922;-94
2023/04/15 11:03:44;;;;;;;;;;;;;;;;;;4977239;28;20246;-95
2023/04/15 11:06:11;;;;;;;;;;;;;;;;;;4994999;28;19930;-96
2023/04/15 11:08:40;;;;;;;;;;;;;;;;;;4981459;28;20344;-94
2023/04/15 11:11:07;;;;;;;;;;;;;;;;;;4978639;28;20004;-93
2023/04/15 11:13:33;;;;;;;;;;;;;;;;;;4992768;28;19922;-92
2023/04/15 11:16:00;;;;;;;;;;;;;;;;;;4976186;28;20388;-92
2023/04/15 11:18:27;;;;;;;;;;;;;;;;;;4976628;28;19928;-93
2023/04/15 11:20:59;;;;;;;;;;;;;;;;;;4976373;28;19926;-93
2023/04/15 11:23:25;;;;;;;;;;;;;;;;;;4976682;28;20377;-94
2023/04/15 11:25:51;;;;;;;;;;;;;;;;;;4976867;28;19928;-93
2023/04/15 11:28:17;;;;;;;;;;;;;;;;;;4977158;28;19929;-92
2023/04/15 11:30:43;;;;;;;;;;;;;;;;;;4978032;28;19997;-93
2023/04/15 11:33:17;;;;;;;;;;;;;;;;;;4978246;28;19968;-95
2023/04/15 11:35:43;;;;;;;;;;;;;;;;;;4980793;28;19925;-95
2023/04/15 11:38:12;;;;;;;;;;;;;;;;;;4996251;28;19922;-96
2023/04/15 11:40:38;;;;;;;;;;;;;;;;;;4995700;28;19973;-96
2023/04/15 11:43:04;;;;;;;;;;;;;;;;;;4994972;28;20032;-95
2023/04/15 11:45:30;;;;;;;;;;;;;;;;;;4998064;28;19922;-94
2023/04/15 11:47:56;;;;;;;;;;;;;;;;;;4995892;28;20060;-94
2023/04/15 11:53:20;;;;;;;;;;;;;;;;;;5012057;28;20016;-94
2023/04/15 11:55:46;;;;;;;;;;;;;;;;;;4996121;28;19964;-94
2023/04/15 11:58:22;;;;;;;;;;;;;;;;;;4996425;28;20016;-93
2023/04/15 12:00:48;;;;;;;;;;;;;;;;;;4997078;28;19972;-93
2023/04/15 12:03:14;;;;;;;;;;;;;;;;;;4996500;28;19925;-92
2023/04/15 12:05:40;;;;;;;;;;;;;;;;;;4995459;28;19925;-94
2023/04/15 12:08:06;;;;;;;;;;;;;;;;;;5011438;28;19925;-94
2023/04/15 12:13:21;;;;;;;;;;;;;;;;;;5015602;28;19921;-93
2023/04/15 12:20:59;;;;;;;;;;;;;;;;;;5067691;23;19937;-93
2023/04/15 12:26:32;;;;;;;;;;;;;;;;;;4949837;28;19922;-93
2023/04/15 12:28:58;;;;;;;;;;;;;;;;;;4978737;28;20029;-92
2023/04/15 12:31:24;;;;;;;;;;;;;;;;;;4960785;28;19922;-94
2023/04/15 12:33:50;;;;;;;;;;;;;;;;;;4957100;28;19929;-93
2023/04/15 12:36:16;;;;;;;;;;;;;;;;;;4956650;28;19934;-94
2023/04/15 12:38:42;;;;;;;;;;;;;;;;;;4956708;28;19996;-95
2023/04/15 12:41:08;;;;;;;;;;;;;;;;;;4957191;28;19922;-94
2023/04/15 12:43:34;;;;;;;;;;;;;;;;;;4958292;28;20286;-96
2023/04/15 12:46:05;;;;;;;;;;;;;;;;;;4959940;28;19922;-95
2023/04/15 12:51:45;;;;;;;;;;;;;;;;;;4984750;28;19958;-93
2023/04/15 12:54:31;;;;;;;;;;;;;;;;;;4984507;28;19928;-96
2023/04/15 12:57:21;;;;;;;;;;;;;;;;;;4972103;28;19960;-96
2023/04/15 13:03:18;;;;;;;;;;;;;;;;;;;;;
2023/04/15 13:11:36;;;;;;;;;;;;;;;;;;4910479;29;19979;-95
2023/04/15 13:14:11;;;;;;;;;;;;;;;;;;4918886;29;19980;-94
2023/04/15 13:16:37;;;;;;;;;;;;;;;;;;4905682;29;19950;-94
2023/04/15 13:19:04;;;;;;;;;;;;;;;;;;4904897;29;19930;-94
2023/04/15 13:21:33;;;;;;;;;;;;;;;;;;4914028;29;20360;-93
2023/04/15 13:23:59;;;;;;;;;;;;;;;;;;4923724;29;19926;-94
2023/04/15 13:26:25;;;;;;;;;;;;;;;;;;4923116;29;20108;-93
2023/04/15 13:28:51;;;;;;;;;;;;;;;;;;4923600;29;20040;-94
2023/04/15 13:31:20;;;;;;;;;;;;;;;;;;4939260;29;20033;-93
2023/04/15 13:33:46;;;;;;;;;;;;;;;;;;4923945;29;20017;-92
2023/04/15 13:36:12;;;;;;;;;;;;;;;;;;4923555;29;19926;-95
2023/04/15 13:38:38;;;;;;;;;;;;;;;;;;4923778;29;20326;-94
2023/04/15 13:41:04;;;;;;;;;;;;;;;;;;4939688;29;20009;-92
2023/04/15 13:43:32;;;;;;;;;;;;;;;;;;4955961;28;20013;-96
2023/04/15 13:46:04;;;;;;;;;;;;;;;;;;4958950;28;19977;-96
2023/04/15 13:48:30;;;;;;;;;;;;;;;;;;4959400;28;19926;-95
2023/04/15 13:50:59;;;;;;;;;;;;;;;;;;4962127;28;20072;-95
2023/04/15 13:53:25;;;;;;;;;;;;;;;;;;4975600;28;19942;-94
2023/04/15 13:55:51;;;;;;;;;;;;;;;;;;4975159;28;19949;-93
2023/04/15 13:58:17;;;;;;;;;;;;;;;;;;4959456;28;20001;-92
2023/04/15 14:00:43;;;;;;;;;;;;;;;;;;4959607;28;19969;-95
2023/04/15 14:03:09;;;;;;;;;;;;;;;;;;4959538;28;20477;-95
2023/04/15 14:05:35;;;;;;;;;;;;;;;;;;4958655;28;20312;-95
2023/04/15 14:08:01;;;;;;;;;;;;;;;;;;4960045;28;19929;-94
2023/04/15 14:10:27;;;;;;;;;;;;;;;;;;4976273;28;19922;-95
2023/04/15 14:12:52;;;;;;;;;;;;;;;;;;4975714;28;19949;-94
2023/04/15 14:15:18;;;;;;;;;;;;;;;;;;4959510;28;19959;-94
2023/04/15 14:17:44;;;;;;;;;;;;;;;;;;4959061;28;19982;-94
2023/04/15 14:20:10;;;;;;;;;;;;;;;;;;4959213;28;20274;-95
2023/04/15 14:22:36;;;;;;;;;;;;;;;;;;4958714;28;19933;-94
2023/04/15 14:25:02;;;;;;;;;;;;;;;;;;4959238;28;19973;-94
2023/04/15 14:27:28;;;;;;;;;;;;;;;;;;4959731;28;19972;-95
2023/04/15 14:29:56;;;;;;;;;;;;;;;;;;4959546;28;20001;-94
2023/04/15 14:32:23;;;;;;;;;;;;;;;;;;4958855;28;19922;-94
2023/04/15 14:34:49;;;;;;;;;;;;;;;;;;4958693;28;20012;-93
2023/04/15 14:37:15;;;;;;;;;;;;;;;;;;4958903;28;19926;-94
2023/04/15 14:39:41;;;;;;;;;;;;;;;;;;4959381;28;19996;-95
2023/04/15 14:42:07;;;;;;;;;;;;;;;;;;4958969;28;19922;-94
2023/04/15 14:44:33;;;;;;;;;;;;;;;;;;4958899;28;19926;-95
2023/04/15 14:46:59;;;;;;;;;;;;;;;;;;4958918;28;19922;-96
2023/04/15 14:49:25;;;;;;;;;;;;;;;;;;4961077;28;19954;-94
2023/04/15 14:51:55;;;;;;;;;;;;;;;;;;4960129;28;19949;-94
2023/04/15 14:54:21;;;;;;;;;;;;;;;;;;4959406;28;19922;-94
2023/04/15 14:56:47;;;;;;;;;;;;;;;;;;4961605;28;19933;-93
2023/04/15 14:59:13;;;;;;;;;;;;;;;;;;4958667;28;20302;-92
2023/04/15 15:01:39;;;;;;;;;;;;;;;;;;4970995;28;20401;-95
2023/04/15 15:04:05;;;;;;;;;;;;;;;;;;4933307;28;20359;-93
2023/04/15 15:06:31;;;;;;;;;;;;;;;;;;4942526;29;19923;-93
2023/04/15 15:08:57;;;;;;;;;;;;;;;;;;4939373;29;19930;-95
2023/04/15 15:11:28;;;;;;;;;;;;;;;;;;4939848;29;19926;-96
2023/04/15 15:16:58;;;;;;;;;;;;;;;;;;5070163;23;19926;-93
2023/04/15 15:19:25;;;;;;;;;;;;;;;;;;4945756;29;19932;-93
2023/04/15 15:21:51;;;;;;;;;;;;;;;;;;4960307;23;19926;-93
2023/04/15 15:24:17;;;;;;;;;;;;;;;;;;4942116;29;19923;-93
2023/04/15 15:29:35;;;;;;;;;;;;;;;;;;4962706;29;19922;-96
2023/04/15 16:10:50;;;;;;;;;;;;;;;;;;4972623;28;19933;-95
2023/04/15 16:13:16;;;;;;;;;;;;;;;;;;4973487;28;19922;-93
2023/04/15 16:15:50;;;;;;;;;;;;;;;;;;4973567;28;20208;-94
2023/04/15 16:18:16;;;;;;;;;;;;;;;;;;4973435;28;19973;-93
2023/04/15 16:20:42;;;;;;;;;;;;;;;;;;4973370;28;19985;-95
2023/04/15 16:23:08;;;;;;;;;;;;;;;;;;4973498;28;19933;-92
2023/04/15 16:25:34;;;;;;;;;;;;;;;;;;4972674;28;19922;-91
2023/04/15 16:28:00;;;;;;;;;;;;;;;;;;4973204;28;19922;-90
2023/04/15 16:30:27;;;;;;;;;;;;;;;;;;4978234;28;20341;-94
2023/04/15 16:32:53;;;;;;;;;;;;;;;;;;4977611;28;19969;-90
2023/04/15 16:35:28;;;;;;;;;;;;;;;;;;4977906;28;19945;-92
2023/04/15 16:37:54;;;;;;;;;;;;;;;;;;4982238;28;19926;-93
2023/04/15 16:40:23;;;;;;;;;;;;;;;;;;4981552;28;19922;-92
2023/04/15 16:42:49;;;;;;;;;;;;;;;;;;4976970;28;19923;-91
2023/04/15 16:45:15;;;;;;;;;;;;;;;;;;4976408;28;20013;-92
2023/04/15 16:47:41;;;;;;;;;;;;;;;;;;4976876;28;20028;-93
2023/04/15 16:50:07;;;;;;;;;;;;;;;;;;4976260;28;19922;-91
2023/04/15 16:52:33;;;;;;;;;;;;;;;;;;4975765;28;19922;-92
2023/04/15 16:54:59;;;;;;;;;;;;;;;;;;4976756;28;20016;-93
2023/04/15 17:00:23;;;;;;;;;;;;;;;;;;4972771;28;20017;-93
2023/04/15 17:02:49;;;;;;;;;;;;;;;;;;4976295;28;19970;-93
2023/04/15 17:05:15;;;;;;;;;;;;;;;;;;4976217;28;19930;-93
2023/04/15 17:13:20;;;;;;;;;;;;;;;;;;4936256;29;19927;-93
2023/04/15 17:15:46;;;;;;;;;;;;;;;;;;4933841;29;19923;-93
2023/04/15 17:18:12;;;;;;;;;;;;;;;;;;4918191;29;19923;-90
2023/04/15 17:20:41;;;;;;;;;;;;;;;;;;4917970;29;20022;-91
2023/04/15 17:23:06;;;;;;;;;;;;;;;;;;4918239;29;19923;-89
2023/04/15 17:25:32;;;;;;;;;;;;;;;;;;4918494;29;20323;-90
2023/04/15 17:28:16;;;;;;;;;;;;;;;;;;4918996;29;19973;-96
2023/04/15 17:31:03;;;;;;;;;;;;;;;;;;4919817;29;20022;-95
2023/04/15 17:33:28;;;;;;;;;;;;;;;;;;4917868;29;19923;-91
2023/04/15 17:35:54;;;;;;;;;;;;;;;;;;4918025;29;20382;-91
2023/04/15 17:38:20;;;;;;;;;;;;;;;;;;4917988;29;19927;-92
2023/04/15 17:40:46;;;;;;;;;;;;;;;;;;4917181;29;19927;-92
2023/04/15 17:43:12;;;;;;;;;;;;;;;;;;4917986;29;20070;-93
2023/04/15 17:45:38;;;;;;;;;;;;;;;;;;4917817;29;19927;-92
2023/04/15 17:48:04;;;;;;;;;;;;;;;;;;4917947;29;19999;-92
2023/04/15 17:50:30;;;;;;;;;;;;;;;;;;4917959;29;20041;-92
2023/04/15 17:52:57;;;;;;;;;;;;;;;;;;4918120;29;19951;-92
2023/04/15 17:55:23;;;;;;;;;;;;;;;;;;4917735;29;19927;-91
2023/04/15 17:57:49;;;;;;;;;;;;;;;;;;4917573;29;19923;-90
2023/04/15 18:00:15;;;;;;;;;;;;;;;;;;4917481;29;20299;-91
2023/04/15 18:02:41;;;;;;;;;;;;;;;;;;4917591;29;19923;-94
2023/04/15 18:05:07;;;;;;;;;;;;;;;;;;4917908;29;19923;-91
2023/04/15 18:07:33;;;;;;;;;;;;;;;;;;4917451;29;19926;-91
2023/04/15 18:09:59;;;;;;;;;;;;;;;;;;4917456;29;19923;-91
2023/04/15 18:12:24;;;;;;;;;;;;;;;;;;4917135;29;19923;-91
2023/04/15 18:14:50;;;;;;;;;;;;;;;;;;4917338;29;20367;-91
2023/04/15 18:17:16;;;;;;;;;;;;;;;;;;4917054;29;19923;-90
2023/04/15 18:19:42;;;;;;;;;;;;;;;;;;4916919;29;19938;-91
2023/04/15 18:22:08;;;;;;;;;;;;;;;;;;4917027;29;19974;-90
2023/04/15 18:24:34;;;;;;;;;;;;;;;;;;4917054;29;20291;-94
2023/04/15 18:30:01;;;;;;;;;;;;;;;;;;4899268;29;19923;-94
2023/04/15 18:32:29;;;;;;;;;;;;;;;;;;4901956;29;19975;-96
2023/04/15 18:34:55;;;;;;;;;;;;;;;;;;4902643;29;19927;-93
2023/04/15 18:37:21;;;;;;;;;;;;;;;;;;4901438;29;19979;-95
2023/04/15 18:39:47;;;;;;;;;;;;;;;;;;4901402;29;19978;-93
2023/04/15 18:42:13;;;;;;;;;;;;;;;;;;4901417;29;19958;-94
2023/04/15 18:44:58;;;;;;;;;;;;;;;;;;;;;
2023/04/15 18:47:24;;;;;;;;;;;;;;;;;;4949812;29;19927;-92
2023/04/15 18:49:50;;;;;;;;;;;;;;;;;;4901193;29;19923;-88
2023/04/15 18:52:16;;;;;;;;;;;;;;;;;;4900948;29;20023;-92
2023/04/15 18:54:51;;;;;;;;;;;;;;;;;;4916322;29;19918;-92
2023/04/15 18:57:17;;;;;;;;;;;;;;;;;;4903412;29;19930;-93
2023/04/15 18:59:45;;;;;;;;;;;;;;;;;;4907497;29;19931;-95
2023/04/15 19:02:11;;;;;;;;;;;;;;;;;;4948864;29;19930;-92
2023/04/15 19:04:37;;;;;;;;;;;;;;;;;;4906725;29;19923;-92
2023/04/15 19:07:03;;;;;;;;;;;;;;;;;;4901366;29;19923;-96
2023/04/15 19:09:29;;;;;;;;;;;;;;;;;;4910430;29;20362;-93
2023/04/15 19:11:55;;;;;;;;;;;;;;;;;;4934735;29;19926;-92
2023/04/15 19:14:21;;;;;;;;;;;;;;;;;;4932526;29;19927;-91
2023/04/15 19:16:47;;;;;;;;;;;;;;;;;;4947890;29;19923;-94
2023/04/15 19:19:13;;;;;;;;;;;;;;;;;;4948812;29;20398;-95